Time;durP1;ratioP1;P1;durP2;ratioP2;P2;SDS_P1;SDS_P2;PMS_P1;PMS_P2;Temp;Humidity;BMP_temperature;BMP_pressure;BME280_temperature;BME280_humidity;BME280_pressure;Samples;Min_cycle;Max_cycle;Signal;HPM_P1;HPM_P2
2023/10/02 00:01:23;;;;;;;10.10;8.97;;;18.30;49.50;;;;;;20428;6863;309184;-74
2023/10/02 00:03:48;;;;;;;9.70;7.97;;;18.30;49.50;;;;;;20641;6864;118947;-74
2023/10/02 00:06:17;;;;;;;11.88;8.90;;;18.20;49.50;;;;;;20428;6864;313168;-74
2023/10/02 00:08:48;;;;;;;10.93;8.00;;;18.10;49.70;;;;;;20616;6864;123473;-74
2023/10/02 00:14:18;;;;;;;10.13;8.77;;;18.30;49.30;;;;;;20409;6864;309205;-74
2023/10/02 00:17:00;;;;;;;9.53;7.60;;;18.30;49.30;;;;;;20578;6864;118126;-73
2023/10/02 00:19:38;;;;;;;8.33;7.40;;;18.10;49.40;;;;;;20581;6864;117770;-74
2023/10/02 00:22:34;;;;;;;10.13;9.00;;;17.70;49.90;;;;;;20401;6864;309105;-74
2023/10/02 00:25:00;;;;;;;9.85;8.70;;;17.80;50.20;;;;;;20365;6864;295765;-74
2023/10/02 00:27:31;;;;;;;11.07;9.63;;;18.00;50.00;;;;;;20406;6864;314146;-74
2023/10/02 00:29:53;;;;;;;12.43;9.23;;;18.10;49.60;;;;;;20401;6864;309200;-74
2023/10/02 00:32:19;;;;;;;11.00;9.32;;;18.30;49.60;;;;;;20435;6864;341009;-74
2023/10/02 00:34:43;;;;;;;9.70;7.97;;;18.30;49.30;;;;;;20617;6864;120381;-75
2023/10/02 00:37:12;;;;;;;11.03;8.80;;;18.00;49.40;;;;;;20432;6864;280932;-74
2023/10/02 00:39:35;;;;;;;10.60;8.00;;;17.80;50.00;;;;;;20629;6864;118154;-74
2023/10/02 00:44:54;;;;;;;10.67;7.70;;;17.40;50.40;;;;;;20614;6864;118648;-74
2023/10/02 00:47:41;;;;;;;11.80;8.27;;;17.20;50.80;;;;;;20634;6864;119585;-75
2023/10/02 00:50:17;;;;;;;10.77;9.50;;;17.00;51.20;;;;;;20424;6864;338358;-74
2023/10/02 00:52:56;;;;;;;10.03;8.10;;;17.20;51.20;;;;;;20617;6864;124240;-74
2023/10/02 00:55:21;;;;;;;10.02;8.70;;;17.20;51.00;;;;;;20419;6864;308384;-74
2023/10/02 00:57:50;;;;;;;10.20;7.90;;;17.30;51.60;;;;;;20633;6864;118662;-74
2023/10/02 01:00:19;;;;;;;11.38;9.07;;;17.30;51.00;;;;;;20417;6864;308631;-74
2023/10/02 01:02:42;;;;;;;11.27;9.32;;;17.40;51.20;;;;;;20374;6864;310948;-74
2023/10/02 01:05:14;;;;;;;10.40;9.27;;;17.60;50.50;;;;;;20414;6864;279263;-74
2023/10/02 01:07:33;;;;;;;10.40;7.83;;;17.90;50.30;;;;;;20611;6862;117512;-74
2023/10/02 01:10:09;;;;;;;9.48;7.90;;;17.70;50.30;;;;;;20626;6863;117751;-74
2023/10/02 01:12:43;;;;;;;12.07;9.35;;;17.40;50.70;;;;;;20455;6863;320024;-73
2023/10/02 01:15:09;;;;;;;9.87;8.50;;;17.50;50.70;;;;;;20619;6864;117927;-74
2023/10/02 01:17:31;;;;;;;10.13;8.03;;;17.40;50.80;;;;;;20615;6864;117604;-74
2023/10/02 01:20:01;;;;;;;12.20;9.57;;;17.10;51.00;;;;;;20413;6864;308907;-74
2023/10/02 01:22:32;;;;;;;10.07;7.93;;;17.30;51.10;;;;;;20633;6864;117938;-74
2023/10/02 01:25:15;;;;;;;12.47;8.33;;;17.00;51.30;;;;;;20596;6864;119017;-74
2023/10/02 01:27:46;;;;;;;10.77;9.35;;;17.00;51.20;;;;;;20424;6864;310052;-74
2023/10/02 01:30:19;;;;;;;11.93;9.50;;;17.20;51.30;;;;;;20410;6864;310037;-74
2023/10/02 01:33:14;;;;;;;11.10;8.63;;;17.50;50.80;;;;;;20582;6864;118837;-75
2023/10/02 01:35:40;;;;;;;11.33;9.57;;;17.50;50.80;;;;;;20426;6864;280840;-74
2023/10/02 01:38:12;;;;;;;10.55;8.98;;;17.60;50.70;;;;;;20417;6864;308263;-74
2023/10/02 01:40:36;;;;;;;9.47;8.17;;;17.60;50.40;;;;;;20619;6864;118125;-74
2023/10/02 01:43:15;;;;;;;11.60;8.13;;;17.60;50.30;;;;;;20604;6864;118797;-74
2023/10/02 01:45:42;;;;;;;10.00;9.00;;;17.40;50.90;;;;;;20413;6864;314339;-74
2023/10/02 01:48:08;;;;;;;12.75;9.55;;;17.40;50.90;;;;;;20404;6864;344162;-74
2023/10/02 01:50:32;;;;;;;10.70;8.25;;;17.60;50.60;;;;;;20624;6864;118779;-74
2023/10/02 01:52:57;;;;;;;9.83;7.47;;;17.50;50.60;;;;;;20611;6864;118173;-74
2023/10/02 01:55:29;;;;;;;9.97;8.83;;;17.20;51.00;;;;;;20412;6864;282206;-74
2023/10/02 01:57:50;;;;;;;9.82;8.80;;;17.20;51.00;;;;;;20406;6864;309666;-73
2023/10/02 02:00:15;;;;;;;11.20;8.80;;;17.40;50.80;;;;;;20418;6864;311418;-74
2023/10/02 02:02:41;;;;;;;9.43;8.47;;;17.60;50.70;;;;;;20392;6864;309644;-74
2023/10/02 02:05:14;;;;;;;11.43;9.30;;;17.80;49.50;;;;;;20419;6864;322761;-75
2023/10/02 02:07:35;;;;;;;9.67;7.87;;;17.80;50.00;;;;;;20619;6864;119286;-74
2023/10/02 02:10:01;;;;;;;10.87;8.60;;;17.50;50.20;;;;;;20633;6864;118484;-74
2023/10/02 02:12:24;;;;;;;12.20;9.55;;;17.20;51.50;;;;;;20403;6864;284652;-74
2023/10/02 02:14:50;;;;;;;11.80;9.38;;;17.20;51.10;;;;;;20399;6864;279217;-74
2023/10/02 02:17:22;;;;;;;10.27;7.97;;;17.40;50.80;;;;;;20637;6864;118942;-74
2023/10/02 02:19:51;;;;;;;13.83;8.30;;;17.20;50.80;;;;;;20640;6862;117691;-74
2023/10/02 02:22:23;;;;;;;8.37;7.30;;;16.90;51.20;;;;;;20641;6863;121316;-74
2023/10/02 02:24:46;;;;;;;9.63;7.07;;;16.60;51.60;;;;;;20596;6863;131457;-74
2023/10/02 02:27:10;;;;;;;9.10;7.50;;;16.40;52.10;;;;;;20639;6864;117600;-74
2023/10/02 02:29:36;;;;;;;10.17;9.13;;;16.30;52.30;;;;;;20422;6864;315130;-74
2023/10/02 02:32:02;;;;;;;9.07;6.97;;;16.50;52.30;;;;;;20634;6864;119826;-74
2023/10/02 02:34:27;;;;;;;10.98;8.55;;;16.50;52.00;;;;;;20426;6864;311970;-74
2023/10/02 02:36:54;;;;;;;9.13;8.07;;;16.70;51.70;;;;;;20621;6864;122199;-74
2023/10/02 02:39:22;;;;;;;12.00;9.48;;;16.60;51.60;;;;;;20428;6864;284154;-74
2023/10/02 02:44:43;;;;;;;11.10;9.70;;;17.30;51.50;;;;;;20392;6864;310374;-75
2023/10/02 02:47:09;;;;;;;12.67;8.50;;;17.30;51.50;;;;;;20633;6864;118155;-74
2023/10/02 02:49:48;;;;;;;8.90;7.70;;;17.10;51.50;;;;;;20637;6864;119033;-74
2023/10/02 02:52:00;;;;;;;12.13;10.00;;;16.90;51.90;;;;;;20383;6864;309030;-74
2023/10/02 02:54:27;;;;;;;11.73;8.00;;;16.90;51.90;;;;;;20637;6864;118280;-74
2023/10/02 02:56:56;;;;;;;11.63;9.30;;;16.80;51.80;;;;;;20405;6864;308265;-74
2023/10/02 02:59:17;;;;;;;12.67;9.83;;;16.90;52.60;;;;;;20401;6864;306724;-74
2023/10/02 03:01:44;;;;;;;10.93;9.70;;;17.40;51.00;;;;;;20430;6864;291275;-74
2023/10/02 03:04:13;;;;;;;10.95;9.57;;;17.40;51.00;;;;;;20428;6864;338740;-74
2023/10/02 03:06:42;;;;;;;10.60;8.17;;;17.50;50.60;;;;;;20621;6864;118233;-74
2023/10/02 03:09:08;;;;;;;9.63;7.60;;;17.30;50.80;;;;;;20635;6864;117888;-74
2023/10/02 03:11:33;;;;;;;11.57;8.37;;;17.00;51.30;;;;;;20632;6864;123544;-74
2023/10/02 03:14:16;;;;;;;10.63;9.52;;;16.70;51.80;;;;;;20427;6864;308777;-74
2023/10/02 03:16:44;;;;;;;11.77;9.30;;;16.80;51.60;;;;;;20402;6864;298982;-74
2023/10/02 03:19:13;;;;;;;10.50;9.40;;;17.20;51.30;;;;;;20408;6864;308772;-74
2023/10/02 03:21:38;;;;;;;10.03;8.17;;;17.40;50.80;;;;;;20623;6864;117796;-74
2023/10/02 03:24:03;;;;;;;9.73;7.47;;;17.20;50.80;;;;;;20631;6864;117737;-74
2023/10/02 03:29:00;;;;;;;12.83;7.53;;;16.50;51.60;;;;;;20621;6864;118266;-74
2023/10/02 03:31:34;;;;;;;58.00;44.17;;;16.30;52.00;;;;;;20622;6862;121710;-74
2023/10/02 03:33:45;;;;;;;13.15;10.57;;;16.20;52.30;;;;;;20608;6863;117753;-74
2023/10/02 03:36:14;;;;;;;14.53;11.10;;;16.30;52.30;;;;;;20436;6863;283677;-74
2023/10/02 03:38:44;;;;;;;19.53;17.33;;;16.30;52.30;;;;;;20633;6864;119227;-74
2023/10/02 03:41:10;;;;;;;12.77;9.33;;;16.30;52.00;;;;;;20631;6864;118023;-74
2023/10/02 03:43:42;;;;;;;11.80;8.50;;;16.10;52.00;;;;;;20628;6864;117623;-74
2023/10/02 03:46:01;;;;;;;7.83;6.93;;;15.90;52.40;;;;;;20610;6864;122352;-74
2023/10/02 03:48:28;;;;;;;10.07;8.97;;;15.80;52.70;;;;;;20442;6864;279957;-73
2023/10/02 03:50:52;;;;;;;12.50;9.57;;;16.10;52.80;;;;;;20416;6864;283186;-74
2023/10/02 03:53:28;;;;;;;10.13;7.53;;;16.50;51.70;;;;;;20643;6864;117895;-74
2023/10/02 03:55:43;;;;;;;9.60;7.65;;;16.40;51.60;;;;;;20611;6864;118259;-74
2023/10/02 03:58:09;;;;;;;9.07;7.33;;;16.20;51.90;;;;;;20639;6864;123820;-74
2023/10/02 04:00:44;;;;;;;7.62;6.90;;;15.90;52.20;;;;;;20640;6864;118354;-74
2023/10/02 04:03:10;;;;;;;10.73;7.57;;;15.60;52.60;;;;;;20633;6864;117675;-74
2023/10/02 04:05:42;;;;;;;10.30;8.80;;;15.60;52.60;;;;;;20419;6864;310706;-74
2023/10/02 04:08:21;;;;;;;11.00;7.87;;;15.90;52.40;;;;;;20606;6864;119302;-74
2023/10/02 04:10:51;;;;;;;9.07;7.40;;;15.90;52.20;;;;;;20589;6864;127501;-74
2023/10/02 04:13:08;;;;;;;8.80;6.78;;;15.60;52.60;;;;;;20606;6864;118772;-74
2023/10/02 04:15:32;;;;;;;9.30;8.40;;;15.60;52.60;;;;;;20422;6864;339132;-74
2023/10/02 04:17:58;;;;;;;10.37;9.33;;;15.80;52.60;;;;;;20432;6864;309714;-74
2023/10/02 04:20:27;;;;;;;9.67;7.67;;;16.20;52.10;;;;;;20636;6864;119915;-73
2023/10/02 04:22:52;;;;;;;9.87;7.60;;;16.10;51.90;;;;;;20627;6864;127178;-74
2023/10/02 04:25:24;;;;;;;11.55;7.78;;;15.70;52.60;;;;;;20642;6864;118922;-74
2023/10/02 04:32:39;;;;;;;10.47;9.03;;;15.40;53.00;;;;;;20415;6864;311384;-74
2023/10/02 04:35:40;;;;;;;9.50;7.40;;;15.60;53.30;;;;;;20590;6864;117969;-74
2023/10/02 04:37:36;;;;;;;10.70;8.87;;;15.70;53.00;;;;;;20358;6864;279142;-74
2023/10/02 04:42:57;;;;;;;12.40;8.20;;;16.20;52.10;;;;;;20636;6862;117709;-74
2023/10/02 04:44:56;;;;;;;10.10;9.10;;;16.10;52.00;;;;;;20349;6863;313337;-74
2023/10/02 04:47:23;;;;;;;11.87;8.97;;;16.20;51.90;;;;;;20654;6863;118474;-73
2023/10/02 04:55:23;;;;;;;10.82;9.50;;;16.30;51.50;;;;;;20422;6864;308736;-72
2023/10/02 04:57:42;;;;;;;9.67;8.00;;;16.40;51.00;;;;;;20617;6864;118176;-73
2023/10/02 05:00:19;;;;;;;11.88;9.70;;;16.20;51.20;;;;;;20409;6864;318902;-73
2023/10/02 05:02:39;;;;;;;11.70;8.67;;;16.20;51.50;;;;;;20609;6864;117738;-73
2023/10/02 05:04:58;;;;;;;9.82;7.78;;;16.00;51.80;;;;;;20604;6864;121830;-72
2023/10/02 05:07:24;;;;;;;10.80;8.95;;;15.70;52.40;;;;;;20417;6864;308745;-73
2023/10/02 05:09:49;;;;;;;9.87;8.00;;;15.80;52.70;;;;;;20643;6864;121322;-73
2023/10/02 05:12:22;;;;;;;12.83;9.37;;;15.80;52.60;;;;;;20419;6864;282718;-73
2023/10/02 05:14:51;;;;;;;10.10;8.10;;;15.80;52.60;;;;;;20599;6864;123039;-74
2023/10/02 05:17:17;;;;;;;11.10;8.00;;;15.50;52.90;;;;;;20626;6864;125221;-74
2023/10/02 05:19:56;;;;;;;9.87;8.03;;;15.50;52.90;;;;;;20646;6864;117626;-74
2023/10/02 05:22:16;;;;;;;10.17;7.87;;;15.30;53.20;;;;;;20651;6864;116571;-74
2023/10/02 05:24:37;;;;;;;10.87;7.80;;;15.20;53.50;;;;;;20625;6864;118892;-73
2023/10/02 05:27:04;;;;;;;11.90;9.43;;;15.00;53.70;;;;;;20321;6864;279765;-73
2023/10/02 05:29:41;;;;;;;10.70;9.50;;;15.30;53.60;;;;;;20392;6864;297851;-72
2023/10/02 05:32:29;;;;;;;10.10;8.00;;;15.60;53.00;;;;;;20464;6864;115259;-72
2023/10/02 05:37:41;;;;;;;9.67;7.10;;;15.30;53.40;;;;;;20606;6864;117752;-78
2023/10/02 05:48:27;;;;;;;10.90;9.75;;;16.10;53.40;;;;;;20404;6864;348941;-75
2023/10/02 05:50:47;;;;;;;11.97;8.30;;;16.00;52.50;;;;;;20563;6864;122181;-74
2023/10/02 05:53:11;;;;;;;10.60;9.10;;;16.00;52.90;;;;;;20409;6864;279581;-71
2023/10/02 05:58:33;;;;;;;11.07;9.50;;;15.90;53.00;;;;;;20402;6863;281974;-72
2023/10/02 06:01:18;;;;;;;10.53;9.43;;;16.40;52.90;;;;;;20393;6864;292670;-70
2023/10/02 06:03:37;;;;;;;10.70;8.33;;;16.30;52.50;;;;;;20585;6864;118722;-71
2023/10/02 06:06:21;;;;;;;12.10;8.70;;;16.30;52.60;;;;;;20625;6864;117661;-73
2023/10/02 06:08:42;;;;;;;13.13;7.87;;;16.00;53.10;;;;;;20574;6864;118836;-72
2023/10/02 06:13:54;;;;;;;12.83;9.67;;;15.80;53.90;;;;;;20402;6864;311860;-76
2023/10/02 06:16:18;;;;;;;11.87;10.07;;;16.20;53.90;;;;;;20394;6864;329871;-74
2023/10/02 06:18:44;;;;;;;11.17;8.97;;;16.60;53.20;;;;;;20580;6864;118533;-74
2023/10/02 06:21:10;;;;;;;10.73;8.83;;;16.70;53.60;;;;;;20578;6864;118076;-75
2023/10/02 06:23:39;;;;;;;11.25;8.18;;;16.60;53.20;;;;;;20608;6864;117529;-76
2023/10/02 06:26:10;;;;;;;9.43;7.90;;;16.60;53.60;;;;;;20578;6864;118245;-77
2023/10/02 06:28:36;;;;;;;12.02;10.00;;;16.90;53.30;;;;;;20355;6864;303873;-74
2023/10/02 06:31:02;;;;;;;10.80;8.13;;;16.90;53.30;;;;;;20584;6864;119833;-74
2023/10/02 06:33:28;;;;;;;11.13;9.93;;;17.40;52.50;;;;;;20405;6864;326857;-76
2023/10/02 06:36:00;;;;;;;9.98;9.00;;;17.40;52.50;;;;;;20414;6864;312864;-78
2023/10/02 06:38:25;;;;;;;11.20;9.50;;;17.90;51.80;;;;;;20384;6864;334967;-76
2023/10/02 06:40:57;;;;;;;11.83;8.80;;;18.30;51.10;;;;;;20608;6864;121691;-76
2023/10/02 06:43:30;;;;;;;11.77;9.73;;;18.20;51.00;;;;;;20415;6864;309669;-75
2023/10/02 06:46:06;;;;;;;11.43;10.23;;;18.60;50.20;;;;;;20424;6864;334599;-76
2023/10/02 06:48:34;;;;;;;10.27;8.80;;;18.60;50.20;;;;;;20626;6864;118510;-74
2023/10/02 06:50:59;;;;;;;11.12;8.40;;;18.60;50.40;;;;;;20627;6864;118071;-75
2023/10/02 06:53:23;;;;;;;11.40;8.27;;;18.50;50.80;;;;;;20643;6864;118669;-75
2023/10/02 06:55:58;;;;;;;13.32;10.10;;;18.40;51.70;;;;;;20434;6864;308865;-74
2023/10/02 06:58:14;;;;;;;11.00;9.90;;;18.60;50.70;;;;;;20418;6864;326037;-74
2023/10/02 07:00:55;;;;;;;9.57;7.97;;;19.00;50.20;;;;;;20624;6864;117854;-75
2023/10/02 07:03:21;;;;;;;12.77;9.73;;;19.00;50.00;;;;;;20432;6864;309204;-74
2023/10/02 07:05:51;;;;;;;10.45;9.35;;;19.30;49.70;;;;;;20435;6862;281196;-74
2023/10/02 07:08:28;;;;;;;10.23;9.17;;;19.60;49.00;;;;;;20394;6863;309129;-74
2023/10/02 07:10:57;;;;;;;11.10;9.50;;;19.80;48.50;;;;;;20389;6863;294710;-77
2023/10/02 07:13:20;;;;;;;8.57;7.70;;;20.10;48.20;;;;;;20612;6864;118872;-75
2023/10/02 07:15:45;;;;;;;10.87;8.53;;;20.00;48.30;;;;;;20638;6864;117462;-74
2023/10/02 07:18:12;;;;;;;11.30;10.02;;;19.80;48.70;;;;;;20408;6864;279515;-74
2023/10/02 07:20:42;;;;;;;11.63;8.63;;;19.90;48.40;;;;;;20635;6864;122928;-73
2023/10/02 07:23:09;;;;;;;12.17;9.27;;;19.90;48.60;;;;;;20604;6864;119067;-77
2023/10/02 07:25:29;;;;;;;9.00;7.80;;;19.90;48.90;;;;;;20613;6864;122174;-74
2023/10/02 07:27:57;;;;;;;12.30;8.60;;;19.70;49.10;;;;;;20653;6864;118631;-75
2023/10/02 07:30:27;;;;;;;12.03;8.77;;;19.70;49.10;;;;;;20650;6864;117772;-77
2023/10/02 07:32:53;;;;;;;8.90;8.00;;;19.70;49.10;;;;;;20627;6864;120028;-74
2023/10/02 07:35:22;;;;;;;9.87;7.90;;;19.70;49.90;;;;;;20638;6864;117778;-76
2023/10/02 07:37:58;;;;;;;11.90;9.48;;;19.70;49.10;;;;;;20409;6864;341538;-76
2023/10/02 07:40:15;;;;;;;11.23;8.07;;;20.20;48.70;;;;;;20614;6864;117598;-71
2023/10/02 07:42:41;;;;;;;9.83;8.40;;;20.20;48.30;;;;;;20625;6864;118248;-73
2023/10/02 07:45:24;;;;;;;11.27;9.83;;;20.20;48.70;;;;;;20419;6864;308335;-72
2023/10/02 07:47:58;;;;;;;11.47;8.67;;;20.60;48.20;;;;;;20612;6864;120762;-74
2023/10/02 07:50:23;;;;;;;12.70;9.93;;;20.60;48.20;;;;;;20359;6864;314090;-74
2023/10/02 07:52:35;;;;;;;10.77;9.57;;;20.80;47.50;;;;;;20383;6864;314586;-75
2023/10/02 07:55:01;;;;;;;10.70;8.50;;;21.10;46.80;;;;;;20634;6864;118147;-75
2023/10/02 07:57:33;;;;;;;10.30;9.20;;;21.20;46.90;;;;;;20449;6864;311610;-74
2023/10/02 08:00:33;;;;;;;10.93;9.03;;;21.40;46.70;;;;;;20661;6864;120734;-74
2023/10/02 08:02:33;;;;;;;9.47;8.37;;;21.50;46.70;;;;;;20588;6864;120483;-74
2023/10/02 08:05:03;;;;;;;10.07;8.57;;;21.40;46.90;;;;;;20621;6864;118874;-74
2023/10/02 08:07:29;;;;;;;11.37;8.93;;;21.40;47.20;;;;;;20629;6864;119169;-74
2023/10/02 08:09:55;;;;;;;12.43;8.40;;;21.40;47.30;;;;;;20623;6864;117803;-74
2023/10/02 08:12:35;;;;;;;10.73;9.63;;;21.40;47.40;;;;;;20383;6864;282133;-74
2023/10/02 08:15:03;;;;;;;15.75;10.25;;;22.10;45.40;;;;;;20374;6864;334124;-72
2023/10/02 08:20:15;;;;;;;11.03;9.17;;;22.50;44.60;;;;;;20648;6863;117798;-72
2023/10/02 08:22:44;;;;;;;10.50;8.40;;;22.50;44.80;;;;;;20600;6863;120669;-72
2023/10/02 08:25:04;;;;;;;13.77;8.43;;;22.40;45.20;;;;;;20611;6864;118665;-71
2023/10/02 08:27:32;;;;;;;11.13;8.30;;;22.30;45.50;;;;;;20640;6864;117514;-71
2023/10/02 08:29:55;;;;;;;11.73;9.70;;;22.20;45.70;;;;;;20427;6864;312946;-72
2023/10/02 08:32:30;;;;;;;12.17;9.93;;;22.40;45.60;;;;;;20434;6864;309040;-72
2023/10/02 08:34:57;;;;;;;11.95;9.77;;;22.80;44.90;;;;;;20412;6864;340574;-72
2023/10/02 08:37:25;;;;;;;10.30;8.53;;;23.20;44.60;;;;;;20656;6864;121066;-73
2023/10/02 08:39:51;;;;;;;12.47;8.53;;;23.30;44.70;;;;;;20644;6864;120876;-72
2023/10/02 08:42:14;;;;;;;12.68;10.30;;;23.20;44.90;;;;;;20387;6864;310203;-71
2023/10/02 08:44:40;;;;;;;12.43;9.10;;;23.40;44.20;;;;;;20593;6864;118205;-73
2023/10/02 08:47:12;;;;;;;12.63;9.33;;;23.50;44.50;;;;;;20629;6864;121112;-72
2023/10/02 08:49:38;;;;;;;11.47;10.20;;;23.50;44.50;;;;;;20431;6864;313356;-72
2023/10/02 08:52:14;;;;;;;14.17;9.27;;;23.70;43.50;;;;;;20634;6864;123602;-72
2023/10/02 08:54:40;;;;;;;15.43;10.73;;;23.80;43.60;;;;;;20412;6864;310805;-74
2023/10/02 08:57:06;;;;;;;14.00;11.38;;;24.30;42.50;;;;;;20382;6880;281900;-74
2023/10/02 08:59:35;;;;;;;12.55;10.95;;;24.30;42.50;;;;;;20374;6880;285031;-73
2023/10/02 09:02:16;;;;;;;15.85;11.70;;;24.60;41.80;;;;;;20365;6880;310370;-72
2023/10/02 09:04:51;;;;;;;15.03;11.33;;;24.80;40.90;;;;;;20356;6880;310107;-73
2023/10/02 09:07:21;;;;;;;13.73;10.43;;;25.00;41.20;;;;;;20550;6860;118108;-73
2023/10/02 09:09:54;;;;;;;19.13;10.43;;;25.00;41.20;;;;;;20630;6860;118441;-73
2023/10/02 09:12:12;;;;;;;15.45;10.85;;;24.90;41.70;;;;;;20619;6860;117705;-73
2023/10/02 09:17:16;;;;;;;13.95;11.48;;;24.70;42.00;;;;;;20413;6860;297495;-73
2023/10/02 09:19:53;;;;;;;14.63;10.80;;;24.80;40.30;;;;;;20653;6860;120294;-73
2023/10/02 09:22:18;;;;;;;12.83;9.80;;;25.00;40.50;;;;;;20647;6860;117830;-74
2023/10/02 09:24:57;;;;;;;16.80;10.70;;;24.90;40.80;;;;;;20630;6860;120238;-73
2023/10/02 09:27:28;;;;;;;13.33;10.53;;;25.00;40.90;;;;;;20650;6860;117990;-73
2023/10/02 09:30:21;;;;;;;13.60;10.73;;;25.00;40.70;;;;;;20673;6858;117912;-73
2023/10/02 09:32:52;;;;;;;13.43;10.40;;;25.00;40.60;;;;;;20626;6859;122041;-73
2023/10/02 09:35:21;;;;;;;15.67;10.87;;;25.00;40.80;;;;;;20599;6859;115268;-73
2023/10/02 09:37:41;;;;;;;14.93;11.40;;;25.00;40.70;;;;;;20621;6859;121607;-72
2023/10/02 09:40:17;;;;;;;17.62;12.32;;;25.20;40.60;;;;;;20439;6859;309263;-72
2023/10/02 09:42:45;;;;;;;15.05;12.30;;;25.50;39.30;;;;;;20434;6859;311201;-77
2023/10/02 09:45:08;;;;;;;18.73;12.43;;;25.90;38.50;;;;;;20094;6859;279589;-75
2023/10/02 09:47:32;;;;;;;17.47;13.30;;;26.30;38.30;;;;;;20428;6859;311718;-74
2023/10/02 09:50:10;;;;;;;15.95;11.77;;;26.80;37.00;;;;;;20653;6860;119850;-74
2023/10/02 09:52:23;;;;;;;14.93;11.63;;;26.80;37.00;;;;;;20606;6860;117779;-74
2023/10/02 09:54:51;;;;;;;19.52;11.95;;;26.50;37.40;;;;;;20599;6860;121320;-75
2023/10/02 09:57:15;;;;;;;18.33;12.13;;;26.50;37.40;;;;;;20637;6860;117939;-74
2023/10/02 09:59:48;;;;;;;17.58;13.00;;;26.50;37.60;;;;;;20438;6860;280912;-76
2023/10/02 10:10:49;;;;;;;20.80;13.50;;;26.70;37.00;;;;;;20435;6860;341789;-75
2023/10/02 10:13:59;;;;;;;17.23;11.90;;;27.00;36.10;;;;;;20644;6860;117842;-74
2023/10/02 10:16:21;;;;;;;16.43;11.30;;;27.00;36.10;;;;;;20602;6860;121568;-73
2023/10/02 10:21:52;;;;;;;16.13;11.27;;;26.90;36.60;;;;;;20655;6860;117850;-74
2023/10/02 10:25:22;;;;;;;18.53;11.50;;;26.90;36.60;;;;;;20553;6860;119943;-73
2023/10/02 10:27:39;;;;;;;19.00;12.20;;;26.90;36.30;;;;;;20607;6860;116898;-73
2023/10/02 10:30:25;;;;;;;17.73;13.33;;;26.90;36.20;;;;;;20448;6860;317201;-72
2023/10/02 10:35:51;;;;;;;16.57;10.90;;;27.60;33.90;;;;;;20637;6860;118247;-72
2023/10/02 10:38:36;;;;;;;15.20;10.77;;;27.70;34.60;;;;;;20646;6860;118331;-72
2023/10/02 10:41:06;;;;;;;15.50;10.90;;;27.70;35.30;;;;;;20640;6858;118649;-72
2023/10/02 10:46:17;;;;;;;13.27;10.37;;;27.50;35.50;;;;;;20658;6859;118468;-72
2023/10/02 10:48:45;;;;;;;16.93;12.73;;;27.50;35.70;;;;;;20431;6859;308720;-73
2023/10/02 10:51:14;;;;;;;14.03;11.87;;;27.60;35.00;;;;;;20448;6859;302962;-73
2023/10/02 10:53:39;;;;;;;17.57;10.90;;;28.00;34.10;;;;;;20658;6859;117785;-73
2023/10/02 10:55:59;;;;;;;16.25;12.15;;;28.10;34.30;;;;;;20443;6859;310134;-73
2023/10/02 10:58:31;;;;;;;14.60;11.80;;;28.30;34.00;;;;;;20447;6859;307631;-73
2023/10/02 11:00:50;;;;;;;14.47;11.27;;;28.50;33.80;;;;;;20621;6860;117733;-73
2023/10/02 11:03:19;;;;;;;13.97;10.40;;;28.50;34.40;;;;;;20658;6860;117924;-73
2023/10/02 11:05:42;;;;;;;15.77;10.53;;;28.50;34.30;;;;;;20638;6860;119947;-73
2023/10/02 11:08:23;;;;;;;15.43;10.93;;;28.40;34.40;;;;;;20662;6860;121457;-73
2023/10/02 11:10:41;;;;;;;16.33;11.10;;;28.30;33.60;;;;;;20587;6860;117778;-73
2023/10/02 11:13:08;;;;;;;15.23;10.73;;;28.30;33.60;;;;;;20662;6860;119583;-72
2023/10/02 11:15:57;;;;;;;15.23;11.33;;;28.20;33.20;;;;;;20664;6860;118627;-73
2023/10/02 11:18:22;;;;;;;18.15;13.45;;;28.20;33.20;;;;;;20424;6860;338367;-72
2023/10/02 11:20:49;;;;;;;13.17;10.83;;;28.70;31.90;;;;;;20643;6860;119849;-72
2023/10/02 11:23:22;;;;;;;20.57;12.30;;;28.60;31.80;;;;;;20653;6860;117991;-72
2023/10/02 11:25:40;;;;;;;19.67;14.48;;;28.60;31.80;;;;;;20426;6860;308582;-72
2023/10/02 11:28:04;;;;;;;19.90;12.37;;;28.80;30.70;;;;;;20618;6860;117806;-72
2023/10/02 11:30:33;;;;;;;19.80;14.23;;;29.20;28.40;;;;;;20449;6860;309220;-72
2023/10/02 11:33:05;;;;;;;22.07;13.13;;;29.10;28.30;;;;;;20642;6860;118531;-72
2023/10/02 11:35:37;;;;;;;19.37;12.20;;;29.30;28.80;;;;;;20663;6860;117899;-72
2023/10/02 11:37:55;;;;;;;17.03;11.13;;;29.20;29.50;;;;;;20639;6860;121797;-72
2023/10/02 11:40:25;;;;;;;18.83;12.43;;;29.20;30.40;;;;;;20664;6860;117848;-72
2023/10/02 11:42:47;;;;;;;16.07;11.53;;;29.10;30.30;;;;;;20632;6860;121112;-72
2023/10/02 11:45:13;;;;;;;20.80;12.37;;;29.10;30.30;;;;;;20659;6860;117972;-72
2023/10/02 11:47:39;;;;;;;18.63;12.30;;;29.10;30.60;;;;;;20658;6860;117777;-72
2023/10/02 11:50:05;;;;;;;19.60;13.83;;;29.10;30.50;;;;;;20442;6860;309689;-72
2023/10/02 11:52:31;;;;;;;20.50;13.50;;;29.40;29.10;;;;;;20659;6858;118832;-72
2023/10/02 11:54:56;;;;;;;22.80;15.03;;;29.50;29.10;;;;;;20641;6859;145684;-72
2023/10/02 11:57:22;;;;;;;24.12;15.80;;;29.50;28.80;;;;;;20450;6859;280272;-72
2023/10/02 11:59:47;;;;;;;24.33;13.97;;;29.60;28.40;;;;;;20663;6859;120144;-72
2023/10/02 12:02:13;;;;;;;26.10;17.55;;;29.70;28.50;;;;;;20451;6859;279168;-72
2023/10/02 12:04:39;;;;;;;22.67;16.30;;;30.00;27.10;;;;;;20443;6859;312211;-73
2023/10/02 12:07:05;;;;;;;24.60;15.63;;;30.00;27.10;;;;;;20501;6859;122334;-72
2023/10/02 12:09:33;;;;;;;24.33;14.57;;;30.00;27.30;;;;;;20659;6859;117721;-72
2023/10/02 12:11:58;;;;;;;30.70;19.47;;;29.90;27.50;;;;;;20447;6860;309243;-72
2023/10/02 12:14:23;;;;;;;26.70;18.43;;;30.00;25.70;;;;;;20454;6860;289459;-72
2023/10/02 12:16:48;;;;;;;27.95;16.70;;;30.10;25.80;;;;;;20649;6860;118247;-72
2023/10/02 12:19:15;;;;;;;23.47;16.07;;;30.10;26.10;;;;;;20669;6860;121169;-73
2023/10/02 12:21:39;;;;;;;23.93;15.67;;;29.90;26.30;;;;;;20658;6860;117745;-73
2023/10/02 12:24:07;;;;;;;24.23;15.70;;;29.80;26.40;;;;;;20664;6860;122644;-72
2023/10/02 12:26:32;;;;;;;25.33;17.17;;;29.60;26.80;;;;;;20445;6860;309516;-72
2023/10/02 12:28:56;;;;;;;24.63;15.90;;;29.70;26.40;;;;;;20639;6860;173088;-73
2023/10/02 12:31:23;;;;;;;25.42;16.55;;;29.70;26.60;;;;;;20443;6860;314607;-72
2023/10/02 12:33:47;;;;;;;22.90;14.63;;;29.90;26.90;;;;;;20651;6860;124120;-72
2023/10/02 12:36:17;;;;;;;23.02;16.23;;;29.90;27.10;;;;;;20441;6860;309120;-72
2023/10/02 12:38:42;;;;;;;25.13;14.80;;;29.90;27.10;;;;;;20638;6860;121352;-72
2023/10/02 12:41:12;;;;;;;22.27;14.67;;;29.90;27.70;;;;;;20659;6860;117005;-72
2023/10/02 12:43:37;;;;;;;25.00;17.37;;;29.80;27.60;;;;;;20442;6860;312992;-72
2023/10/02 12:46:07;;;;;;;24.17;16.83;;;30.10;26.80;;;;;;20447;6860;342910;-72
2023/10/02 12:48:33;;;;;;;23.73;14.90;;;30.10;26.80;;;;;;20655;6860;117987;-72
2023/10/02 12:50:59;;;;;;;21.17;15.13;;;30.10;27.40;;;;;;20431;6860;309140;-72
2023/10/02 12:53:25;;;;;;;20.27;14.23;;;30.10;27.30;;;;;;20581;6860;118317;-72
2023/10/02 12:55:52;;;;;;;19.47;13.90;;;30.10;27.30;;;;;;20658;6860;119403;-72
2023/10/02 12:58:18;;;;;;;25.80;15.40;;;29.80;27.70;;;;;;20664;6860;117657;-72
2023/10/02 13:00:43;;;;;;;23.63;16.60;;;29.80;27.70;;;;;;20432;6860;279235;-72
2023/10/02 13:03:10;;;;;;;24.93;17.53;;;30.20;27.90;;;;;;20397;6858;289719;-72
2023/10/02 13:05:35;;;;;;;22.23;16.10;;;30.10;27.90;;;;;;20404;6859;281150;-72
2023/10/02 13:08:00;;;;;;;23.87;15.17;;;30.50;27.90;;;;;;20594;6859;119342;-72
2023/10/02 13:10:26;;;;;;;27.27;15.67;;;30.40;27.60;;;;;;20571;6859;123580;-72
2023/10/02 13:12:51;;;;;;;23.97;15.23;;;30.30;28.00;;;;;;20611;6859;118219;-72
2023/10/02 13:15:17;;;;;;;23.05;16.65;;;30.10;28.20;;;;;;20416;6859;285343;-72
2023/10/02 13:17:42;;;;;;;25.80;16.55;;;30.20;28.00;;;;;;20414;6859;281544;-72
2023/10/02 13:20:08;;;;;;;22.03;16.03;;;30.50;27.60;;;;;;20409;6859;312818;-72
2023/10/02 13:22:35;;;;;;;25.77;16.90;;;30.60;26.90;;;;;;20391;6859;283912;-72
2023/10/02 13:24:59;;;;;;;25.07;17.07;;;30.80;26.70;;;;;;20405;6860;338046;-72
2023/10/02 13:27:25;;;;;;;24.40;16.70;;;30.90;26.70;;;;;;20437;6860;316490;-73
2023/10/02 13:29:51;;;;;;;23.37;16.43;;;31.00;26.90;;;;;;20447;6860;279316;-72
2023/10/02 13:32:16;;;;;;;22.98;16.60;;;31.00;26.90;;;;;;20449;6860;280474;-73
2023/10/02 13:38:07;;;;;;;24.90;16.90;;;31.10;26.00;;;;;;20424;6860;309357;-73